Time;durP1;ratioP1;P1;durP2;ratioP2;P2;SDS_P1;SDS_P2;PMS_P1;PMS_P2;Temp;Humidity;BMP_temperature;BMP_pressure;BME280_temperature;BME280_humidity;BME280_pressure;Samples;Min_cycle;Max_cycle;Signal;HPM_P1;HPM_P2
2022/05/17 00:00:38;;;;;;;;;;;15.50;99.90;;;;;;5095384;28;19963;-79
2022/05/17 00:03:03;;;;;;;;;;;15.40;99.90;;;;;;5095611;28;20371;-79
2022/05/17 00:05:30;;;;;;;;;;;15.40;99.90;;;;;;5095577;28;20264;-78
2022/05/17 00:07:55;;;;;;;;;;;15.30;99.90;;;;;;5095822;28;19912;-78
2022/05/17 00:10:21;;;;;;;;;;;15.30;99.90;;;;;;5095518;28;19931;-79
2022/05/17 00:12:56;;;;;;;;;;;15.30;99.90;;;;;;5095009;28;19904;-78
2022/05/17 00:15:23;;;;;;;;;;;15.30;99.90;;;;;;5095619;28;19961;-79
2022/05/17 00:17:50;;;;;;;;;;;15.30;99.90;;;;;;5095262;28;19923;-79
2022/05/17 00:20:16;;;;;;;;;;;15.30;99.90;;;;;;5094994;28;19912;-78
2022/05/17 00:22:42;;;;;;;;;;;15.30;99.90;;;;;;5093668;28;19916;-78
2022/05/17 00:25:08;;;;;;;;;;;15.30;99.90;;;;;;5094294;28;19908;-78
2022/05/17 00:27:34;;;;;;;;;;;15.30;99.90;;;;;;5094558;28;19908;-78
2022/05/17 00:30:00;;;;;;;;;;;15.30;99.90;;;;;;5095294;28;19909;-79
2022/05/17 00:32:25;;;;;;;;;;;15.30;99.90;;;;;;5095681;28;20011;-78
2022/05/17 00:34:51;;;;;;;;;;;15.40;99.90;;;;;;5094715;28;20341;-78
2022/05/17 00:37:17;;;;;;;;;;;15.30;99.90;;;;;;5095604;28;19999;-78
2022/05/17 00:39:42;;;;;;;;;;;15.40;99.90;;;;;;5094651;28;19951;-78
2022/05/17 00:42:08;;;;;;;;;;;15.40;99.90;;;;;;5094964;28;20406;-78
2022/05/17 00:44:43;;;;;;;;;;;15.40;99.90;;;;;;5094557;28;19919;-78
2022/05/17 00:47:24;;;;;;;;;;;15.30;99.90;;;;;;5095090;28;20050;-78
2022/05/17 00:49:51;;;;;;;;;;;15.20;99.90;;;;;;5094384;28;20606;-79
2022/05/17 00:52:37;;;;;;;;;;;15.20;99.90;;;;;;5094773;28;19908;-78
2022/05/17 00:55:32;;;;;;;;;;;15.20;99.90;;;;;;5093164;28;19977;-79
2022/05/17 00:58:03;;;;;;;;;;;15.10;99.90;;;;;;5085366;28;20277;-78
2022/05/17 01:00:30;;;;;;;;;;;15.10;99.90;;;;;;5094382;28;19916;-77
2022/05/17 01:02:59;;;;;;;;;;;15.10;99.90;;;;;;5094123;28;20003;-77
2022/05/17 01:05:25;;;;;;;;;;;15.10;99.90;;;;;;5094407;28;19908;-79
2022/05/17 01:07:52;;;;;;;;;;;15.10;99.90;;;;;;5093815;28;19908;-79
2022/05/17 01:10:18;;;;;;;;;;;15.00;99.90;;;;;;5094650;28;19908;-79
2022/05/17 01:12:43;;;;;;;;;;;15.00;99.90;;;;;;5092783;28;20371;-80
2022/05/17 01:15:11;;;;;;;;;;;14.90;99.90;;;;;;5094392;28;19998;-79
2022/05/17 01:17:38;;;;;;;;;;;14.90;99.90;;;;;;5093856;28;20252;-77
2022/05/17 01:20:06;;;;;;;;;;;14.90;99.90;;;;;;5094277;28;19959;-79
2022/05/17 01:22:32;;;;;;;;;;;14.80;99.90;;;;;;5093806;28;19912;-76
2022/05/17 01:24:57;;;;;;;;;;;14.80;99.90;;;;;;5093815;28;19931;-79
2022/05/17 01:27:23;;;;;;;;;;;14.70;99.90;;;;;;5094324;28;20007;-79
2022/05/17 01:29:49;;;;;;;;;;;14.70;99.90;;;;;;5093303;28;19958;-79
2022/05/17 01:32:15;;;;;;;;;;;14.60;99.90;;;;;;5094086;28;19908;-78
2022/05/17 01:34:41;;;;;;;;;;;14.60;99.90;;;;;;5093661;28;19914;-77
2022/05/17 01:37:07;;;;;;;;;;;14.60;99.90;;;;;;5093807;28;19915;-78
2022/05/17 01:39:33;;;;;;;;;;;14.60;99.90;;;;;;5093367;28;19915;-77
2022/05/17 01:41:59;;;;;;;;;;;14.60;99.90;;;;;;5093913;28;19912;-78
2022/05/17 01:44:25;;;;;;;;;;;14.60;99.90;;;;;;5092242;28;19954;-78
2022/05/17 01:46:51;;;;;;;;;;;14.60;99.90;;;;;;5093283;28;20250;-78
2022/05/17 01:49:17;;;;;;;;;;;14.60;99.90;;;;;;5093588;28;19914;-79
2022/05/17 01:51:42;;;;;;;;;;;14.60;99.90;;;;;;5093097;28;19908;-79
2022/05/17 01:54:08;;;;;;;;;;;14.60;99.90;;;;;;5093392;28;19912;-78
2022/05/17 01:56:34;;;;;;;;;;;14.60;99.90;;;;;;5093461;28;19912;-76
2022/05/17 01:59:00;;;;;;;;;;;14.60;99.90;;;;;;5093552;28;20416;-78
2022/05/17 02:01:26;;;;;;;;;;;14.60;99.90;;;;;;5093429;28;20011;-79
2022/05/17 02:03:51;;;;;;;;;;;14.70;99.90;;;;;;5092592;28;20277;-79
2022/05/17 02:06:17;;;;;;;;;;;14.70;99.90;;;;;;5093217;28;19916;-79
2022/05/17 02:08:43;;;;;;;;;;;14.70;99.90;;;;;;5092637;28;19908;-80
2022/05/17 02:11:09;;;;;;;;;;;14.70;99.90;;;;;;5093772;28;19908;-79
2022/05/17 02:13:35;;;;;;;;;;;14.70;99.90;;;;;;5093204;28;19908;-76
2022/05/17 02:16:03;;;;;;;;;;;14.70;99.90;;;;;;5093368;28;19950;-78
2022/05/17 02:18:28;;;;;;;;;;;14.60;99.90;;;;;;5093490;28;19908;-79
2022/05/17 02:20:54;;;;;;;;;;;14.70;99.90;;;;;;5092596;28;20112;-78
2022/05/17 02:23:19;;;;;;;;;;;14.70;99.90;;;;;;5092686;28;19912;-79
2022/05/17 02:25:45;;;;;;;;;;;14.60;99.90;;;;;;5092636;28;20372;-78
2022/05/17 02:28:11;;;;;;;;;;;14.60;99.90;;;;;;5093340;28;20250;-78
2022/05/17 02:30:39;;;;;;;;;;;14.70;99.90;;;;;;5092225;28;20253;-77
2022/05/17 02:33:06;;;;;;;;;;;14.70;99.90;;;;;;5093129;28;19908;-79
2022/05/17 02:35:31;;;;;;;;;;;14.70;99.90;;;;;;5093110;28;19908;-79
2022/05/17 02:37:57;;;;;;;;;;;14.70;99.90;;;;;;5092335;28;19958;-78
2022/05/17 02:40:23;;;;;;;;;;;14.70;99.90;;;;;;5092921;28;20272;-79
2022/05/17 02:42:48;;;;;;;;;;;14.70;99.90;;;;;;5092567;28;19916;-79
2022/05/17 02:45:14;;;;;;;;;;;14.70;99.90;;;;;;5092609;28;20345;-79
2022/05/17 02:47:40;;;;;;;;;;;14.70;99.90;;;;;;5092512;28;19958;-78
2022/05/17 02:50:06;;;;;;;;;;;14.70;99.90;;;;;;5093026;28;19940;-80
2022/05/17 02:52:31;;;;;;;;;;;14.70;99.90;;;;;;5091714;28;19908;-78
2022/05/17 02:54:57;;;;;;;;;;;14.70;99.90;;;;;;5092478;28;19964;-79
2022/05/17 02:57:22;;;;;;;;;;;14.70;99.90;;;;;;5092893;28;19920;-78
2022/05/17 02:59:48;;;;;;;;;;;14.70;99.90;;;;;;5092333;28;19947;-77
2022/05/17 03:02:14;;;;;;;;;;;14.70;99.90;;;;;;5092486;28;19912;-79
2022/05/17 03:04:39;;;;;;;;;;;14.70;99.90;;;;;;5092444;28;19912;-76
2022/05/17 03:07:05;;;;;;;;;;;14.70;99.90;;;;;;5092790;28;19953;-78
2022/05/17 03:09:30;;;;;;;;;;;14.70;99.90;;;;;;5092555;28;19962;-78
2022/05/17 03:11:57;;;;;;;;;;;14.70;99.90;;;;;;5092292;28;19998;-78
2022/05/17 03:14:23;;;;;;;;;;;14.80;99.90;;;;;;5092714;28;20361;-77
2022/05/17 03:16:48;;;;;;;;;;;14.80;99.90;;;;;;5092772;28;20011;-78
2022/05/17 03:19:14;;;;;;;;;;;14.80;99.90;;;;;;5095159;28;19908;-79
2022/05/17 03:21:40;;;;;;;;;;;14.80;99.90;;;;;;5096359;28;20006;-76
2022/05/17 03:24:06;;;;;;;;;;;14.80;99.90;;;;;;5096157;28;20319;-79
2022/05/17 03:26:31;;;;;;;;;;;14.90;99.90;;;;;;5096671;28;20399;-79
2022/05/17 03:29:00;;;;;;;;;;;14.90;99.90;;;;;;5095984;28;19908;-79
2022/05/17 03:31:26;;;;;;;;;;;14.90;99.90;;;;;;5096527;28;19954;-79
2022/05/17 03:33:51;;;;;;;;;;;15.00;99.90;;;;;;5094375;28;19912;-79
2022/05/17 03:36:17;;;;;;;;;;;15.00;99.90;;;;;;5096116;28;19915;-80
2022/05/17 03:38:43;;;;;;;;;;;15.00;99.90;;;;;;5095514;28;20314;-78
2022/05/17 03:41:08;;;;;;;;;;;15.00;99.90;;;;;;5094980;28;19912;-79
2022/05/17 03:43:34;;;;;;;;;;;15.10;99.90;;;;;;5096330;28;19981;-79
2022/05/17 03:46:00;;;;;;;;;;;15.10;99.90;;;;;;5096012;28;20369;-79
2022/05/17 03:48:26;;;;;;;;;;;15.10;99.90;;;;;;5096088;28;19912;-80
2022/05/17 03:50:52;;;;;;;;;;;15.10;99.90;;;;;;5095365;28;19908;-79
2022/05/17 03:53:18;;;;;;;;;;;15.10;99.90;;;;;;5096193;28;19914;-79
2022/05/17 03:55:44;;;;;;;;;;;15.20;99.90;;;;;;5095496;28;20003;-78
2022/05/17 03:58:10;;;;;;;;;;;15.10;99.90;;;;;;5096345;28;19959;-79
2022/05/17 04:00:35;;;;;;;;;;;15.20;99.90;;;;;;5095446;28;19912;-79
2022/05/17 04:03:01;;;;;;;;;;;15.20;99.90;;;;;;5094866;28;19955;-79
2022/05/17 04:05:27;;;;;;;;;;;15.20;99.90;;;;;;5095890;28;20292;-79
2022/05/17 04:07:54;;;;;;;;;;;15.20;99.90;;;;;;5095270;28;19915;-79
2022/05/17 04:10:19;;;;;;;;;;;15.20;99.90;;;;;;5096246;28;20266;-80
2022/05/17 04:12:45;;;;;;;;;;;15.20;99.90;;;;;;5095199;28;19915;-78
2022/05/17 04:15:13;;;;;;;;;;;15.20;99.90;;;;;;5095525;28;19929;-80
2022/05/17 04:17:39;;;;;;;;;;;15.20;99.90;;;;;;5095666;28;19916;-80
2022/05/17 04:20:05;;;;;;;;;;;15.20;99.90;;;;;;5094961;28;19918;-78
2022/05/17 04:22:30;;;;;;;;;;;15.20;99.90;;;;;;5095267;28;19912;-79
2022/05/17 04:24:57;;;;;;;;;;;15.30;99.90;;;;;;5094520;28;20261;-78
2022/05/17 04:27:23;;;;;;;;;;;15.30;99.90;;;;;;5095112;28;20379;-79
2022/05/17 04:29:48;;;;;;;;;;;15.30;99.90;;;;;;5094813;28;19916;-79
2022/05/17 04:32:14;;;;;;;;;;;15.30;99.90;;;;;;5095060;28;20373;-78
2022/05/17 04:34:40;;;;;;;;;;;15.30;99.90;;;;;;5093897;28;19915;-79
2022/05/17 04:37:05;;;;;;;;;;;15.30;99.90;;;;;;5094477;28;20392;-79
2022/05/17 04:39:31;;;;;;;;;;;15.30;99.90;;;;;;5094933;28;19930;-79
2022/05/17 04:41:57;;;;;;;;;;;15.40;99.90;;;;;;5094267;28;20286;-79
2022/05/17 04:44:23;;;;;;;;;;;15.40;99.90;;;;;;5095152;28;19962;-80
2022/05/17 04:46:48;;;;;;;;;;;15.40;99.90;;;;;;5094553;28;19912;-79
2022/05/17 04:49:14;;;;;;;;;;;15.40;99.90;;;;;;5095313;28;19915;-79
2022/05/17 04:51:39;;;;;;;;;;;15.40;99.90;;;;;;5094866;28;19947;-79
2022/05/17 04:54:05;;;;;;;;;;;15.40;99.90;;;;;;5094351;28;19912;-81
2022/05/17 04:56:31;;;;;;;;;;;15.40;99.90;;;;;;5094615;28;19909;-79
2022/05/17 04:58:57;;;;;;;;;;;15.40;99.90;;;;;;5093045;28;20280;-78
2022/05/17 05:01:22;;;;;;;;;;;15.40;99.90;;;;;;5094763;28;19912;-80
2022/05/17 05:03:48;;;;;;;;;;;15.40;99.90;;;;;;5094148;28;20364;-77
2022/05/17 05:06:13;;;;;;;;;;;15.30;99.90;;;;;;5094695;28;19908;-80
2022/05/17 05:08:39;;;;;;;;;;;15.30;99.90;;;;;;5094673;28;19973;-80
2022/05/17 05:11:05;;;;;;;;;;;15.30;99.90;;;;;;5094066;28;20377;-80
2022/05/17 05:13:30;;;;;;;;;;;15.30;99.90;;;;;;5094353;28;20345;-80
2022/05/17 05:15:56;;;;;;;;;;;15.30;99.90;;;;;;5093962;28;19935;-79
2022/05/17 05:18:22;;;;;;;;;;;15.30;99.90;;;;;;5094080;28;19912;-79
2022/05/17 05:20:48;;;;;;;;;;;15.30;99.90;;;;;;5094132;28;19916;-77
2022/05/17 05:23:13;;;;;;;;;;;15.30;99.90;;;;;;5093985;28;19919;-79
2022/05/17 05:25:39;;;;;;;;;;;15.30;99.90;;;;;;5094301;28;20324;-80
2022/05/17 05:28:09;;;;;;;;;;;15.40;99.90;;;;;;5093687;28;19908;-79
2022/05/17 05:30:35;;;;;;;;;;;15.40;99.90;;;;;;5094163;28;19912;-79
2022/05/17 05:33:00;;;;;;;;;;;15.40;99.90;;;;;;5126433;27;20365;-79
2022/05/17 05:35:26;;;;;;;;;;;15.40;99.90;;;;;;5093874;28;19972;-78
2022/05/17 05:37:52;;;;;;;;;;;15.40;99.90;;;;;;5093515;28;19915;-78
2022/05/17 05:40:19;;;;;;;;;;;15.50;99.90;;;;;;5093439;28;19969;-80
2022/05/17 05:42:44;;;;;;;;;;;15.50;99.90;;;;;;5093775;28;19958;-79
2022/05/17 05:45:11;;;;;;;;;;;15.50;99.90;;;;;;5093361;28;19943;-80
2022/05/17 05:47:37;;;;;;;;;;;15.50;99.90;;;;;;5093626;28;19912;-79
2022/05/17 05:50:03;;;;;;;;;;;15.50;99.90;;;;;;5093332;28;20365;-80
2022/05/17 05:52:29;;;;;;;;;;;15.50;99.90;;;;;;5093553;28;20316;-80
2022/05/17 05:54:55;;;;;;;;;;;15.50;99.90;;;;;;5093160;28;19908;-79
2022/05/17 05:57:20;;;;;;;;;;;15.50;99.90;;;;;;5093439;28;19966;-80
2022/05/17 05:59:46;;;;;;;;;;;15.50;99.90;;;;;;5092212;28;19955;-80
2022/05/17 06:02:12;;;;;;;;;;;15.50;99.90;;;;;;5091637;28;19959;-80
2022/05/17 06:04:37;;;;;;;;;;;15.40;99.90;;;;;;5093438;28;19955;-85
2022/05/17 06:07:03;;;;;;;;;;;15.40;99.90;;;;;;5092778;28;19908;-81
2022/05/17 06:09:29;;;;;;;;;;;15.50;99.90;;;;;;5091983;28;19991;-81
2022/05/17 06:11:55;;;;;;;;;;;15.40;99.90;;;;;;5092735;28;19915;-81
2022/05/17 06:14:21;;;;;;;;;;;15.50;99.90;;;;;;5093324;28;20362;-81
2022/05/17 06:16:47;;;;;;;;;;;15.50;99.90;;;;;;5093281;28;19965;-82
2022/05/17 06:19:12;;;;;;;;;;;15.50;99.90;;;;;;5092856;28;19904;-79
2022/05/17 06:21:38;;;;;;;;;;;15.40;99.90;;;;;;5092143;28;20007;-81
2022/05/17 06:24:04;;;;;;;;;;;15.50;99.90;;;;;;5092825;28;20319;-81
2022/05/17 06:26:30;;;;;;;;;;;15.50;99.90;;;;;;5092784;28;19915;-79
2022/05/17 06:28:56;;;;;;;;;;;15.50;99.90;;;;;;5092664;28;19912;-79
2022/05/17 06:31:22;;;;;;;;;;;15.50;99.90;;;;;;5092994;28;20272;-81
2022/05/17 06:33:47;;;;;;;;;;;15.50;99.90;;;;;;5093095;28;20004;-79
2022/05/17 06:36:13;;;;;;;;;;;15.50;99.90;;;;;;5090991;28;19904;-80
2022/05/17 06:38:38;;;;;;;;;;;15.40;99.90;;;;;;5097805;28;20018;-79
2022/05/17 06:41:04;;;;;;;;;;;15.40;99.90;;;;;;5092523;28;20373;-79
2022/05/17 06:43:30;;;;;;;;;;;15.40;99.90;;;;;;5093041;28;20018;-80
2022/05/17 06:45:56;;;;;;;;;;;15.40;99.90;;;;;;5092088;28;20268;-77
2022/05/17 06:48:21;;;;;;;;;;;15.40;99.90;;;;;;5092667;28;19908;-80
2022/05/17 06:50:47;;;;;;;;;;;15.50;99.90;;;;;;5092896;28;19915;-79
2022/05/17 06:53:13;;;;;;;;;;;15.50;99.90;;;;;;5095367;28;19908;-80
2022/05/17 06:55:39;;;;;;;;;;;15.60;99.90;;;;;;5097088;28;19908;-80
2022/05/17 06:58:05;;;;;;;;;;;15.70;99.90;;;;;;5096297;28;19927;-79
2022/05/17 07:00:31;;;;;;;;;;;15.70;99.90;;;;;;5096952;28;20395;-79
2022/05/17 07:02:58;;;;;;;;;;;15.70;99.90;;;;;;5096537;28;19954;-77
2022/05/17 07:05:23;;;;;;;;;;;15.80;99.90;;;;;;5097128;28;20380;-80
2022/05/17 07:07:49;;;;;;;;;;;15.80;99.90;;;;;;5096882;28;19939;-80
2022/05/17 07:13:13;;;;;;;;;;;15.70;99.90;;;;;;5095951;28;19931;-79
2022/05/17 07:15:49;;;;;;;;;;;15.80;99.90;;;;;;5096721;28;19908;-79
2022/05/17 07:18:17;;;;;;;;;;;15.90;99.90;;;;;;5095901;28;19976;-79
2022/05/17 07:20:43;;;;;;;;;;;15.90;99.90;;;;;;5096340;28;19912;-79
2022/05/17 07:23:09;;;;;;;;;;;16.00;99.90;;;;;;5095827;28;19919;-80
2022/05/17 07:25:36;;;;;;;;;;;16.10;99.90;;;;;;5096950;28;19908;-80
2022/05/17 07:28:01;;;;;;;;;;;16.10;99.90;;;;;;5095838;28;20018;-80
2022/05/17 07:30:27;;;;;;;;;;;16.30;99.90;;;;;;5096316;28;20046;-77
2022/05/17 07:32:53;;;;;;;;;;;16.30;99.90;;;;;;5096066;28;19908;-79
2022/05/17 07:35:18;;;;;;;;;;;16.40;99.90;;;;;;5095797;28;19908;-78
2022/05/17 07:37:44;;;;;;;;;;;16.50;99.90;;;;;;5096245;28;19909;-79
2022/05/17 07:40:12;;;;;;;;;;;16.60;99.90;;;;;;5095538;28;19908;-79
2022/05/17 07:42:38;;;;;;;;;;;16.60;99.90;;;;;;5096199;28;19912;-80
2022/05/17 07:45:05;;;;;;;;;;;16.70;99.90;;;;;;5095614;28;19915;-79
2022/05/17 07:47:30;;;;;;;;;;;16.70;99.90;;;;;;5096159;28;19915;-80
2022/05/17 07:49:56;;;;;;;;;;;16.70;99.90;;;;;;5111669;28;19912;-80
2022/05/17 07:52:22;;;;;;;;;;;16.70;99.90;;;;;;5095440;28;19915;-80
2022/05/17 07:54:47;;;;;;;;;;;16.70;99.90;;;;;;5096008;28;19943;-80
2022/05/17 07:57:13;;;;;;;;;;;16.70;99.90;;;;;;5095251;28;19973;-79
2022/05/17 07:59:38;;;;;;;;;;;16.70;99.90;;;;;;5095407;28;19931;-78
2022/05/17 08:02:04;;;;;;;;;;;16.70;99.90;;;;;;5095200;28;19975;-78
2022/05/17 08:04:30;;;;;;;;;;;16.70;99.90;;;;;;5094002;28;19965;-79
2022/05/17 08:06:58;;;;;;;;;;;16.70;99.90;;;;;;5095801;28;19915;-78
2022/05/17 08:09:24;;;;;;;;;;;16.70;99.90;;;;;;5093921;28;20242;-78
2022/05/17 08:11:52;;;;;;;;;;;16.70;99.90;;;;;;5096034;28;19915;-78
2022/05/17 08:14:18;;;;;;;;;;;16.70;99.90;;;;;;5095002;28;19909;-79
2022/05/17 08:16:44;;;;;;;;;;;16.70;99.90;;;;;;5095593;28;19922;-80
2022/05/17 08:19:10;;;;;;;;;;;16.70;99.90;;;;;;5094901;28;19908;-80
2022/05/17 08:21:36;;;;;;;;;;;16.70;99.90;;;;;;5095248;28;19922;-78
2022/05/17 08:24:02;;;;;;;;;;;16.60;99.90;;;;;;5094905;28;20014;-76
2022/05/17 08:29:12;;;;;;;;;;;16.60;99.90;;;;;;5094331;28;20455;-79
2022/05/17 08:31:37;;;;;;;;;;;16.60;99.90;;;;;;5094940;28;19951;-79
2022/05/17 08:34:03;;;;;;;;;;;16.50;99.90;;;;;;5093345;28;20010;-78
2022/05/17 08:36:28;;;;;;;;;;;16.60;99.90;;;;;;5095083;28;19912;-82
2022/05/17 08:38:54;;;;;;;;;;;16.60;99.90;;;;;;5095002;28;20364;-80
2022/05/17 08:41:25;;;;;;;;;;;16.60;99.90;;;;;;5094340;28;19981;-79
2022/05/17 08:44:00;;;;;;;;;;;16.60;99.90;;;;;;5094712;28;20373;-79
2022/05/17 08:46:28;;;;;;;;;;;16.60;99.90;;;;;;5094143;28;19931;-79
2022/05/17 08:49:01;;;;;;;;;;;16.70;99.90;;;;;;5097082;28;19915;-79
2022/05/17 08:51:49;;;;;;;;;;;16.80;99.90;;;;;;5094622;28;19911;-79
2022/05/17 08:54:25;;;;;;;;;;;16.90;99.90;;;;;;5094151;28;19912;-80
2022/05/17 08:56:54;;;;;;;;;;;16.90;99.90;;;;;;5094795;28;19981;-80
2022/05/17 08:59:22;;;;;;;;;;;17.00;99.90;;;;;;5084827;28;19913;-79
2022/05/17 09:02:00;;;;;;;;;;;17.00;99.90;;;;;;5093878;28;19915;-80
2022/05/17 09:04:41;;;;;;;;;;;17.10;99.90;;;;;;5093756;28;19920;-79
2022/05/17 09:07:27;;;;;;;;;;;17.10;99.90;;;;;;5093489;28;19916;-79
2022/05/17 09:09:57;;;;;;;;;;;17.20;99.90;;;;;;5093829;28;19908;-80
2022/05/17 09:12:38;;;;;;;;;;;17.20;99.90;;;;;;5092060;28;20261;-80
2022/05/17 09:15:05;;;;;;;;;;;17.30;99.90;;;;;;5092637;28;19908;-77
2022/05/17 09:17:31;;;;;;;;;;;17.40;99.90;;;;;;5093779;28;19915;-79
2022/05/17 09:19:56;;;;;;;;;;;17.50;99.90;;;;;;5093560;28;19912;-79
2022/05/17 09:22:23;;;;;;;;;;;17.70;99.90;;;;;;5092884;28;20010;-81
2022/05/17 09:24:58;;;;;;;;;;;17.80;99.90;;;;;;5093705;28;19916;-79
2022/05/17 09:27:26;;;;;;;;;;;17.90;99.90;;;;;;5092917;28;19915;-79
2022/05/17 09:30:04;;;;;;;;;;;18.00;99.90;;;;;;5093287;28;19908;-79
2022/05/17 09:32:31;;;;;;;;;;;18.10;99.90;;;;;;5092952;28;19975;-79
2022/05/17 09:34:59;;;;;;;;;;;18.10;99.90;;;;;;5094158;28;20003;-79
2022/05/17 09:37:30;;;;;;;;;;;18.20;99.90;;;;;;5093291;28;19912;-80
2022/05/17 09:39:55;;;;;;;;;;;18.30;99.90;;;;;;5092576;28;19908;-80
2022/05/17 09:42:29;;;;;;;;;;;18.40;99.90;;;;;;5092642;28;20387;-80
2022/05/17 09:44:56;;;;;;;;;;;18.40;99.90;;;;;;5093214;28;20307;-81
2022/05/17 09:47:24;;;;;;;;;;;18.40;99.90;;;;;;5093022;28;19908;-81
2022/05/17 09:52:35;;;;;;;;;;;18.40;99.90;;;;;;5093391;28;20388;-81
2022/05/17 09:55:13;;;;;;;;;;;18.30;99.90;;;;;;5093546;28;19913;-80
2022/05/17 09:57:57;;;;;;;;;;;18.20;99.90;;;;;;5092936;28;20007;-81
2022/05/17 10:00:24;;;;;;;;;;;18.20;99.90;;;;;;5092309;28;20002;-81
2022/05/17 10:03:00;;;;;;;;;;;18.20;99.90;;;;;;5093513;28;19912;-79
2022/05/17 10:05:43;;;;;;;;;;;18.20;99.90;;;;;;5091784;28;20345;-80
2022/05/17 10:08:14;;;;;;;;;;;18.20;99.90;;;;;;5092954;28;19908;-80
2022/05/17 10:10:43;;;;;;;;;;;18.10;99.90;;;;;;5093086;28;19976;-80
2022/05/17 10:13:19;;;;;;;;;;;18.20;99.90;;;;;;5092904;28;19908;-79
2022/05/17 10:15:47;;;;;;;;;;;18.20;99.90;;;;;;5093499;28;19999;-80
2022/05/17 10:18:23;;;;;;;;;;;18.20;99.90;;;;;;5092655;28;19940;-80
2022/05/17 10:20:52;;;;;;;;;;;18.30;99.90;;;;;;5092796;28;20357;-81
2022/05/17 10:23:44;;;;;;;;;;;18.30;99.90;;;;;;5093122;28;20031;-81
2022/05/17 10:26:12;;;;;;;;;;;18.30;99.90;;;;;;5093058;28;19908;-78
2022/05/17 10:28:37;;;;;;;;;;;18.30;99.90;;;;;;5091746;28;19915;-80
2022/05/17 10:31:21;;;;;;;;;;;18.40;99.90;;;;;;5092653;28;19908;-81
2022/05/17 10:33:57;;;;;;;;;;;18.50;99.90;;;;;;5092848;28;19912;-81
2022/05/17 10:36:34;;;;;;;;;;;18.60;99.90;;;;;;5092488;28;19908;-81
2022/05/17 10:39:20;;;;;;;;;;;18.70;99.90;;;;;;5092624;28;19908;-81
2022/05/17 10:41:46;;;;;;;;;;;18.70;99.90;;;;;;5091551;28;20258;-81
2022/05/17 10:44:14;;;;;;;;;;;18.70;99.90;;;;;;5092289;28;19912;-80
2022/05/17 10:46:46;;;;;;;;;;;18.60;99.90;;;;;;5092507;28;19930;-81
2022/05/17 10:49:11;;;;;;;;;;;18.60;99.90;;;;;;5092400;28;20009;-79
2022/05/17 10:51:46;;;;;;;;;;;18.50;99.90;;;;;;5092831;28;20363;-80
2022/05/17 10:54:12;;;;;;;;;;;18.50;99.90;;;;;;5091270;28;19908;-80
2022/05/17 10:56:48;;;;;;;;;;;18.40;99.90;;;;;;5092288;28;19908;-80
2022/05/17 10:59:19;;;;;;;;;;;18.40;99.90;;;;;;5092238;28;19912;-80
2022/05/17 11:02:04;;;;;;;;;;;18.50;99.90;;;;;;5091982;28;19919;-80
2022/05/17 11:04:29;;;;;;;;;;;18.50;99.90;;;;;;5091423;28;20202;-80
2022/05/17 11:07:01;;;;;;;;;;;18.50;99.90;;;;;;5091757;28;19908;-79
2022/05/17 11:09:32;;;;;;;;;;;18.50;99.90;;;;;;5091141;28;19963;-79
2022/05/17 11:11:57;;;;;;;;;;;18.50;99.90;;;;;;5091936;28;19908;-79
2022/05/17 11:14:28;;;;;;;;;;;18.50;99.90;;;;;;5091465;28;20238;-79
2022/05/17 11:16:57;;;;;;;;;;;18.50;99.90;;;;;;5092084;28;19908;-79
2022/05/17 11:19:27;;;;;;;;;;;18.50;99.90;;;;;;5090188;28;19908;-79
2022/05/17 11:21:59;;;;;;;;;;;18.50;99.90;;;;;;5091532;28;20368;-79
2022/05/17 11:24:41;;;;;;;;;;;18.40;99.90;;;;;;5091083;28;19912;-79
2022/05/17 11:27:25;;;;;;;;;;;18.40;99.90;;;;;;5092224;28;19955;-81
2022/05/17 11:30:05;;;;;;;;;;;18.40;99.90;;;;;;5091602;28;19908;-79
2022/05/17 11:32:32;;;;;;;;;;;18.30;99.90;;;;;;5091218;28;19912;-79
2022/05/17 11:34:59;;;;;;;;;;;18.20;99.90;;;;;;5091985;28;19990;-80
2022/05/17 11:37:33;;;;;;;;;;;18.00;99.90;;;;;;5091270;28;19916;-81
2022/05/17 11:40:07;;;;;;;;;;;17.80;99.90;;;;;;5095473;28;19908;-80
2022/05/17 11:42:34;;;;;;;;;;;17.60;99.90;;;;;;5094945;28;20512;-80
2022/05/17 11:45:20;;;;;;;;;;;17.40;99.90;;;;;;5095791;28;20384;-80
2022/05/17 11:47:48;;;;;;;;;;;17.30;99.90;;;;;;5095710;28;19908;-80
2022/05/17 11:50:18;;;;;;;;;;;17.30;99.90;;;;;;5095239;28;20013;-78
2022/05/17 11:52:45;;;;;;;;;;;17.20;99.90;;;;;;5095475;28;19953;-80
2022/05/17 11:55:12;;;;;;;;;;;17.20;99.90;;;;;;5095170;28;19911;-78
2022/05/17 11:57:38;;;;;;;;;;;17.20;99.90;;;;;;5094818;28;19920;-79
2022/05/17 12:00:24;;;;;;;;;;;17.20;99.90;;;;;;5095210;28;20261;-80
2022/05/17 12:02:54;;;;;;;;;;;17.10;99.90;;;;;;5090582;28;19920;-81
2022/05/17 12:05:38;;;;;;;;;;;17.10;99.90;;;;;;5094731;28;20274;-80
2022/05/17 12:08:22;;;;;;;;;;;17.00;99.90;;;;;;5094675;28;19947;-80
2022/05/17 12:10:48;;;;;;;;;;;16.90;99.90;;;;;;5094844;28;20019;-81
2022/05/17 12:13:15;;;;;;;;;;;16.90;99.90;;;;;;5094532;28;19943;-80
2022/05/17 12:15:47;;;;;;;;;;;16.90;99.90;;;;;;5095188;28;20384;-81
2022/05/17 12:18:13;;;;;;;;;;;16.90;99.90;;;;;;5094898;28;19962;-78
2022/05/17 12:20:57;;;;;;;;;;;16.90;99.90;;;;;;5095268;28;19956;-81
2022/05/17 12:23:28;;;;;;;;;;;16.90;99.90;;;;;;5093861;28;20397;-81
2022/05/17 12:25:57;;;;;;;;;;;17.00;99.90;;;;;;5095002;28;20002;-79
2022/05/17 12:28:26;;;;;;;;;;;17.00;99.90;;;;;;5092920;28;19939;-86
2022/05/17 12:30:53;;;;;;;;;;;16.90;99.90;;;;;;5094758;28;20357;-86
2022/05/17 12:33:20;;;;;;;;;;;17.00;99.90;;;;;;5093893;28;19912;-85
2022/05/17 12:35:47;;;;;;;;;;;17.00;99.90;;;;;;5094692;28;20332;-85
2022/05/17 12:43:53;;;;;;;;;;;16.90;99.90;;;;;;5094659;28;20328;-83
2022/05/17 12:46:22;;;;;;;;;;;16.90;99.90;;;;;;5093989;28;19912;-85
2022/05/17 12:48:50;;;;;;;;;;;17.00;99.90;;;;;;5094016;28;19912;-83
2022/05/17 12:51:17;;;;;;;;;;;16.80;99.90;;;;;;5092854;28;19994;-84
2022/05/17 12:53:45;;;;;;;;;;;16.80;99.90;;;;;;5094075;28;20334;-82
2022/05/17 12:56:28;;;;;;;;;;;16.50;99.90;;;;;;5093669;28;20003;-82
2022/05/17 12:58:56;;;;;;;;;;;16.50;99.90;;;;;;5094604;28;19978;-82
2022/05/17 13:01:27;;;;;;;;;;;16.30;99.90;;;;;;5093740;28;20040;-82
2022/05/17 13:03:54;;;;;;;;;;;16.10;99.90;;;;;;5093711;28;19965;-84
2022/05/17 13:06:20;;;;;;;;;;;16.00;99.90;;;;;;5093561;28;19915;-82
2022/05/17 13:08:47;;;;;;;;;;;15.90;99.90;;;;;;5093830;28;20080;-83
2022/05/17 13:11:18;;;;;;;;;;;15.80;99.90;;;;;;5093672;28;19908;-79
2022/05/17 13:13:44;;;;;;;;;;;15.50;99.90;;;;;;5093064;28;20378;-83
2022/05/17 13:16:10;;;;;;;;;;;15.50;99.90;;;;;;5093061;28;19916;-83
2022/05/17 13:18:39;;;;;;;;;;;15.60;99.90;;;;;;5091396;28;20412;-80
2022/05/17 13:21:07;;;;;;;;;;;15.50;99.90;;;;;;5093235;28;19923;-82
2022/05/17 13:23:33;;;;;;;;;;;15.60;99.90;;;;;;5092217;28;20500;-82
2022/05/17 13:26:00;;;;;;;;;;;15.60;99.90;;;;;;5094112;28;19936;-80
2022/05/17 13:28:31;;;;;;;;;;;15.50;99.90;;;;;;5098286;28;19961;-88
2022/05/17 13:31:03;;;;;;;;;;;15.40;99.90;;;;;;5093560;28;19919;-87
2022/05/17 13:33:31;;;;;;;;;;;15.40;99.90;;;;;;5091684;28;19911;-88
2022/05/17 13:36:04;;;;;;;;;;;15.30;99.90;;;;;;5093904;28;20430;-90
2022/05/17 13:38:30;;;;;;;;;;;15.10;99.90;;;;;;5093169;28;19961;-88
2022/05/17 13:40:59;;;;;;;;;;;14.90;99.90;;;;;;5093017;28;19919;-88
2022/05/17 13:43:31;;;;;;;;;;;14.80;99.90;;;;;;5091970;28;20019;-89
2022/05/17 13:46:00;;;;;;;;;;;14.80;99.90;;;;;;5093217;28;20006;-91
2022/05/17 13:48:26;;;;;;;;;;;14.60;99.90;;;;;;5091344;28;19909;-87
2022/05/17 13:50:56;;;;;;;;;;;14.60;99.90;;;;;;5091949;28;19908;-89
2022/05/17 13:53:21;;;;;;;;;;;14.60;99.90;;;;;;5092557;28;20288;-88
2022/05/17 13:55:49;;;;;;;;;;;14.50;99.90;;;;;;5092916;28;19912;-87
2022/05/17 13:58:15;;;;;;;;;;;14.60;99.90;;;;;;5091226;28;19920;-90
2022/05/17 14:00:58;;;;;;;;;;;14.70;99.90;;;;;;5091271;28;19909;-89
2022/05/17 14:03:24;;;;;;;;;;;14.80;99.90;;;;;;5092354;28;19964;-88
2022/05/17 14:05:50;;;;;;;;;;;14.80;99.90;;;;;;5093131;28;19916;-82
2022/05/17 14:13:57;;;;;;;;;;;14.80;99.90;;;;;;5092668;28;19914;-86
2022/05/17 14:16:24;;;;;;;;;;;14.60;99.90;;;;;;5092407;28;19999;-90
2022/05/17 14:18:51;;;;;;;;;;;14.50;99.90;;;;;;5093171;28;19988;-87
2022/05/17 14:21:17;;;;;;;;;;;14.50;99.90;;;;;;5090876;28;20361;-87
2022/05/17 14:23:43;;;;;;;;;;;14.40;99.90;;;;;;5091492;28;20341;-89
2022/05/17 14:26:11;;;;;;;;;;;14.40;99.90;;;;;;5091464;28;19915;-89
2022/05/17 14:28:36;;;;;;;;;;;14.30;99.90;;;;;;5090423;28;20130;-88
2022/05/17 14:31:02;;;;;;;;;;;14.40;99.90;;;;;;5093172;28;20365;-89
2022/05/17 14:33:28;;;;;;;;;;;14.50;99.90;;;;;;5092227;28;19908;-90
2022/05/17 14:35:56;;;;;;;;;;;14.40;99.90;;;;;;5092841;28;19908;-91
2022/05/17 14:38:25;;;;;;;;;;;14.40;99.90;;;;;;5091164;28;19908;-88
2022/05/17 14:40:51;;;;;;;;;;;14.30;99.90;;;;;;5091087;28;19913;-88